createdAt,value
2022-10-17T00:01:07.666Z,3.00
2022-10-17T00:06:12.943Z,3.00
2022-10-17T00:11:17.386Z,3.80
2022-10-17T00:16:24.377Z,3.00
2022-10-17T00:21:28.392Z,4.00
2022-10-17T00:26:31.022Z,3.80
2022-10-17T00:31:33.688Z,3.00
2022-10-17T00:36:38.236Z,3.00
2022-10-17T00:41:40.905Z,3.00
2022-10-17T00:46:43.549Z,3.00
2022-10-17T00:51:48.586Z,3.00
2022-10-17T00:56:51.261Z,3.40
2022-10-17T01:01:55.502Z,4.00
2022-10-17T01:06:59.525Z,3.20
2022-10-17T01:12:05.274Z,3.00
2022-10-17T01:17:12.020Z,3.00
2022-10-17T01:22:17.512Z,3.00
2022-10-17T01:27:45.054Z,4.00
2022-10-17T01:32:50.635Z,3.00
2022-10-17T01:37:56.910Z,3.60
2022-10-17T01:43:01.313Z,3.20
2022-10-17T01:48:08.533Z,3.00
2022-10-17T01:53:13.529Z,2.80
2022-10-17T01:58:19.905Z,3.00
2022-10-17T02:03:24.169Z,4.00
2022-10-17T02:08:27.613Z,3.00
2022-10-17T02:13:36.949Z,3.20
2022-10-17T02:18:58.710Z,3.00
2022-10-17T02:24:05.911Z,3.00
2022-10-17T02:29:10.691Z,2.00
2022-10-17T02:34:17.150Z,3.00
2022-10-17T02:39:23.267Z,3.20
2022-10-17T02:44:26.049Z,3.00
2022-10-17T02:49:39.753Z,3.00
2022-10-17T02:54:43.870Z,3.00
2022-10-17T02:59:46.625Z,3.00
2022-10-17T03:04:51.166Z,4.00
2022-10-17T03:09:53.875Z,2.80
2022-10-17T03:14:56.877Z,3.00
2022-10-17T03:20:01.251Z,3.00
2022-10-17T03:25:06.335Z,3.40
2022-10-17T03:30:11.848Z,2.80
2022-10-17T03:35:16.242Z,4.00
2022-10-17T03:40:23.206Z,3.00
2022-10-17T03:45:26.240Z,4.00
2022-10-17T03:50:30.630Z,4.00
2022-10-17T03:55:34.687Z,3.40
2022-10-17T04:00:37.916Z,3.00
2022-10-17T04:05:42.386Z,3.00
2022-10-17T04:10:45.125Z,3.80
2022-10-17T04:15:55.037Z,2.60
2022-10-17T04:20:59.267Z,4.80
2022-10-17T04:26:03.322Z,3.00
2022-10-17T04:31:07.531Z,4.60
2022-10-17T04:36:22.883Z,3.80
2022-10-17T04:41:25.841Z,3.00
2022-10-17T04:46:28.551Z,4.60
2022-10-17T04:51:32.672Z,3.80
2022-10-17T04:57:10.457Z,3.00
2022-10-17T05:02:15.033Z,4.80
2022-10-17T05:07:19.201Z,4.80
2022-10-17T05:12:28.212Z,4.20
2022-10-17T05:17:31.111Z,2.80
2022-10-17T05:22:38.306Z,4.80
2022-10-17T05:27:44.311Z,3.00
2022-10-17T05:32:47.156Z,3.00
2022-10-17T05:37:51.280Z,3.00
2022-10-17T05:42:55.703Z,3.00
2022-10-17T05:47:59.723Z,3.80
2022-10-17T05:53:03.886Z,3.00
2022-10-17T05:58:09.782Z,3.00
2022-10-17T06:03:20.261Z,3.00
2022-10-17T06:08:24.363Z,4.80
2022-10-17T06:13:27.169Z,3.00
2022-10-17T06:18:30.891Z,3.00
2022-10-17T06:23:35.688Z,3.00
2022-10-17T06:28:50.491Z,2.40
2022-10-17T06:33:54.554Z,4.80
2022-10-17T06:38:58.652Z,3.00
2022-10-17T06:44:11.176Z,3.00
2022-10-17T06:49:46.087Z,2.00
2022-10-17T06:54:58.622Z,3.00
2022-10-17T07:00:16.463Z,3.00
2022-10-17T07:05:25.075Z,6.00
2022-10-17T07:10:29.242Z,5.00
2022-10-17T07:15:32.428Z,6.40
2022-10-17T07:20:35.806Z,6.80
2022-10-17T07:25:40.413Z,5.00
2022-10-17T07:30:47.485Z,5.00
2022-10-17T07:35:53.728Z,5.00
2022-10-17T07:40:58.416Z,5.80
2022-10-17T07:46:01.698Z,5.00
2022-10-17T07:51:05.627Z,6.80
2022-10-17T07:56:10.429Z,5.60
2022-10-17T08:01:15.616Z,5.40
2022-10-17T08:06:18.978Z,3.40
2022-10-17T08:11:23.218Z,5.40
2022-10-17T08:16:25.851Z,5.00
2022-10-17T08:21:28.524Z,7.00
2022-10-17T08:26:32.633Z,6.00
2022-10-17T08:31:35.310Z,6.00
2022-10-17T08:36:38.019Z,5.00
2022-10-17T08:41:50.381Z,4.20
2022-10-17T08:46:54.477Z,4.60
2022-10-17T08:51:59.942Z,5.00
2022-10-17T08:57:03.957Z,4.20
2022-10-17T09:02:17.141Z,3.00
2022-10-17T09:07:21.676Z,5.00
2022-10-17T09:12:28.208Z,6.00
2022-10-17T09:17:36.266Z,5.00
2022-10-17T09:22:40.396Z,3.80
2022-10-17T09:27:46.482Z,5.00
2022-10-17T09:32:49.267Z,4.20
2022-10-17T09:37:51.887Z,3.80
2022-10-17T09:42:56.078Z,3.00
2022-10-17T09:48:02.171Z,4.60
2022-10-17T09:53:08.560Z,3.80
2022-10-17T09:58:12.755Z,5.00
2022-10-17T10:03:17.624Z,3.40
2022-10-17T10:08:20.401Z,5.00
2022-10-17T10:13:24.880Z,3.00
2022-10-17T10:23:33.840Z,4.60
2022-10-17T10:28:38.573Z,3.40
2022-10-17T10:33:45.918Z,3.00
2022-10-17T10:38:53.809Z,4.80
2022-10-17T10:43:57.911Z,5.60
2022-10-17T10:49:00.886Z,3.40
2022-10-17T10:54:06.046Z,5.80
2022-10-17T10:59:14.092Z,3.20
2022-10-17T11:04:23.048Z,4.00
2022-10-17T11:09:32.861Z,4.00
2022-10-17T11:14:43.745Z,4.00
2022-10-17T11:19:49.478Z,4.00
2022-10-17T11:24:57.031Z,6.20
2022-10-17T11:30:00.994Z,5.40
2022-10-17T11:35:05.337Z,4.40
2022-10-17T11:40:11.510Z,7.00
2022-10-17T11:45:16.903Z,4.00
2022-10-17T11:55:45.746Z,4.80
2022-10-17T12:00:57.743Z,4.80
2022-10-17T12:06:04.746Z,6.00
2022-10-17T12:11:10.491Z,6.00
2022-10-17T12:16:38.951Z,4.40
2022-10-17T12:21:58.994Z,7.20
2022-10-17T12:27:23.375Z,7.00
2022-10-17T12:32:30.281Z,5.80
2022-10-17T12:38:04.485Z,4.40
2022-10-17T12:43:58.510Z,7.00
2022-10-17T12:49:24.496Z,5.60
2022-10-17T12:54:27.185Z,5.80
2022-10-17T12:59:30.340Z,5.80
2022-10-17T13:04:34.501Z,5.80
2022-10-17T13:09:38.694Z,4.00
2022-10-17T13:14:42.199Z,5.60
2022-10-17T13:19:46.955Z,4.80
2022-10-17T13:24:50.099Z,4.00
2022-10-17T13:29:52.897Z,4.80
2022-10-17T13:35:10.719Z,4.60
2022-10-17T13:40:40.244Z,4.40
2022-10-17T13:45:39.960Z,5.40
2022-10-17T13:50:44.958Z,4.00
2022-10-17T13:56:22.946Z,4.00
2022-10-17T14:01:21.547Z,4.20
2022-10-17T14:06:25.579Z,4.00
2022-10-17T14:11:34.944Z,2.80
2022-10-17T14:16:40.002Z,2.20
2022-10-17T14:21:44.910Z,3.00
2022-10-17T14:26:48.421Z,3.00
2022-10-17T14:31:53.645Z,3.40
2022-10-17T14:36:57.804Z,4.00
2022-10-17T14:42:04.271Z,4.00
2022-10-17T14:47:38.048Z,4.00
2022-10-17T14:52:33.127Z,4.00
2022-10-17T14:57:42.893Z,4.00
2022-10-17T15:02:45.941Z,4.00
2022-10-17T15:07:49.927Z,4.00
2022-10-17T15:12:59.158Z,3.00
2022-10-17T15:18:07.267Z,4.60
2022-10-17T15:23:11.301Z,3.80
2022-10-17T15:28:13.930Z,5.00
2022-10-17T15:33:16.612Z,4.20
2022-10-17T15:38:20.573Z,4.00
2022-10-17T15:43:23.285Z,6.80
2022-10-17T15:48:28.567Z,4.00
2022-10-17T15:53:32.580Z,4.40
2022-10-17T15:58:37.510Z,5.00
2022-10-17T16:03:40.573Z,4.80
2022-10-17T16:08:44.996Z,6.00
2022-10-17T16:13:51.785Z,6.80
2022-10-17T16:18:54.628Z,7.00
2022-10-17T16:23:58.777Z,8.00
2022-10-17T16:29:03.266Z,7.80
2022-10-17T16:34:06.642Z,7.00
2022-10-17T16:39:10.889Z,8.20
2022-10-17T16:44:15.703Z,7.20
2022-10-17T16:49:18.622Z,8.60
2022-10-17T16:54:22.663Z,8.00
2022-10-17T16:59:25.526Z,7.00
2022-10-17T17:04:28.392Z,8.80
2022-10-17T17:09:32.481Z,7.00
2022-10-17T17:14:35.358Z,7.00
2022-10-17T17:19:38.045Z,8.00
2022-10-17T17:24:42.217Z,8.00
2022-10-17T17:29:44.981Z,7.60
2022-10-17T17:34:47.938Z,7.00
2022-10-17T17:39:51.951Z,9.00
2022-10-17T17:44:54.659Z,8.40
2022-10-17T17:49:57.393Z,9.80
2022-10-17T17:55:01.450Z,11.80
2022-10-17T18:00:04.822Z,9.20
2022-10-17T18:05:08.641Z,8.40
2022-10-17T18:15:18.324Z,9.00
2022-10-17T18:20:21.079Z,9.00
2022-10-17T18:25:25.272Z,9.20
2022-10-17T18:30:28.960Z,8.80
2022-10-17T18:35:35.438Z,8.60
2022-10-17T18:40:39.451Z,10.00
2022-10-17T18:45:42.419Z,9.00
2022-10-17T18:50:45.232Z,8.60
2022-10-17T18:55:49.266Z,8.80
2022-10-17T19:00:51.958Z,7.80
2022-10-17T19:05:56.705Z,9.00
2022-10-17T19:11:07.286Z,9.00
2022-10-17T19:16:11.175Z,9.00
2022-10-17T19:21:16.030Z,9.00
2022-10-17T19:26:23.382Z,10.00
2022-10-17T19:31:27.263Z,8.00
2022-10-17T19:36:33.634Z,8.20
2022-10-17T19:41:37.859Z,8.00
2022-10-17T19:46:40.668Z,9.00
2022-10-17T19:51:43.442Z,9.40
2022-10-17T19:56:47.461Z,8.60
2022-10-17T20:01:50.271Z,8.20
2022-10-17T20:06:53.064Z,8.40
2022-10-17T20:11:57.061Z,7.20
2022-10-17T20:16:59.769Z,8.40
2022-10-17T20:22:02.484Z,8.00
2022-10-17T20:27:06.572Z,7.40
2022-10-17T20:32:09.360Z,8.80
2022-10-17T20:37:12.012Z,7.00
2022-10-17T20:42:16.120Z,6.20
2022-10-17T20:47:33.139Z,8.00
2022-10-17T20:52:41.508Z,8.20
2022-10-17T20:57:45.666Z,8.20
2022-10-17T21:02:48.543Z,8.00
2022-10-17T21:07:51.245Z,7.40
2022-10-17T21:12:55.769Z,7.80
2022-10-17T21:17:58.645Z,8.00
2022-10-17T21:23:01.347Z,7.00
2022-10-17T21:28:05.497Z,8.00
2022-10-17T21:33:08.485Z,7.20
2022-10-17T21:38:11.224Z,7.00
2022-10-17T21:43:15.271Z,7.00
2022-10-17T21:48:18.065Z,7.00
2022-10-17T21:53:20.753Z,7.60
2022-10-17T21:58:24.789Z,7.40
2022-10-17T22:03:27.441Z,7.40
2022-10-17T22:08:30.198Z,6.60
2022-10-17T22:13:34.213Z,7.20
2022-10-17T22:18:36.909Z,7.00
2022-10-17T22:23:39.564Z,7.40
2022-10-17T22:28:43.608Z,6.60
2022-10-17T22:33:46.468Z,6.20
2022-10-17T22:38:49.184Z,6.40
2022-10-17T22:43:53.370Z,7.40
2022-10-17T22:48:56.057Z,5.00
2022-10-17T22:53:58.819Z,5.20
2022-10-17T22:59:02.844Z,5.60
2022-10-17T23:04:05.624Z,5.60
2022-10-17T23:09:08.351Z,6.00
2022-10-17T23:14:12.385Z,5.00
2022-10-17T23:19:15.043Z,5.20
2022-10-17T23:24:17.908Z,6.00
2022-10-17T23:29:22.065Z,5.00
2022-10-17T23:34:24.746Z,6.00
2022-10-17T23:39:27.469Z,5.00
2022-10-17T23:44:31.432Z,7.00
2022-10-17T23:49:34.109Z,5.20
2022-10-17T23:54:36.781Z,6.20
2022-10-17T23:59:40.882Z,6.00
